createdAt,value
2022-09-20T00:05:35.325Z,5.55
2022-09-20T00:10:43.563Z,3.83
2022-09-20T00:15:47.724Z,4.00
2022-09-20T00:18:14.824Z,3.55
2022-09-20T00:20:49.985Z,5.57
2022-09-20T00:23:18.597Z,2.95
2022-09-20T00:25:54.107Z,3.65
2022-09-20T00:28:22.027Z,3.85
2022-09-20T00:33:49.895Z,3.30
2022-09-20T00:41:41.950Z,3.90
2022-09-20T00:49:29.455Z,8.85
2022-09-20T00:52:00.257Z,5.22
2022-09-20T00:54:29.529Z,4.30
2022-09-20T00:59:44.315Z,2.95
2022-09-20T01:29:26.485Z,6.85
2022-09-20T01:40:24.612Z,6.55
2022-09-20T01:43:12.279Z,5.85
2022-09-20T01:45:46.798Z,3.60
2022-09-20T01:51:28.870Z,8.15
2022-09-20T01:59:30.327Z,2.67
2022-09-20T02:02:00.371Z,3.05
2022-09-20T02:15:15.698Z,2.10
2022-09-20T02:20:18.972Z,4.38
2022-09-20T02:28:50.051Z,1.98
2022-09-20T02:31:40.718Z,2.88
2022-09-20T02:34:25.843Z,2.85
2022-09-20T02:37:10.282Z,4.20
2022-09-20T02:40:05.331Z,3.75
2022-09-20T02:42:45.701Z,3.38
2022-09-20T02:45:51.332Z,3.80
2022-09-20T02:48:24.845Z,4.40
2022-09-20T02:56:39.862Z,5.03
2022-09-20T02:59:34.160Z,5.05
2022-09-20T03:02:23.212Z,3.45
2022-09-20T03:35:22.888Z,9.20
2022-09-20T03:38:09.456Z,3.72
2022-09-20T03:40:53.643Z,3.78
2022-09-20T03:54:28.288Z,2.70
2022-09-20T03:57:32.883Z,2.92
2022-09-20T04:00:03.140Z,2.40
2022-09-20T04:03:10.312Z,4.13
2022-09-20T04:08:31.520Z,8.10
2022-09-20T04:11:08.221Z,8.45
2022-09-20T04:13:40.976Z,12.05
2022-09-20T04:16:43.124Z,10.32
2022-09-20T04:19:35.644Z,16.25
2022-09-20T04:22:05.232Z,7.82
2022-09-20T04:24:51.617Z,11.18
2022-09-20T04:27:23.101Z,5.97
2022-09-20T04:30:19.453Z,5.90
2022-09-20T04:32:58.255Z,5.93
2022-09-20T04:36:12.392Z,7.38
2022-09-20T04:38:39.886Z,8.95
2022-09-20T04:41:46.456Z,8.07
2022-09-20T04:44:53.220Z,7.50
2022-09-20T04:47:48.184Z,9.05
2022-09-20T04:50:56.560Z,9.45
2022-09-20T04:53:57.204Z,10.55
2022-09-20T04:56:53.424Z,10.40
2022-09-20T04:59:55.308Z,13.10
2022-09-20T05:03:17.414Z,10.90
2022-09-20T05:06:24.197Z,11.43
2022-09-20T05:09:32.008Z,10.40
2022-09-20T05:15:43.990Z,11.20
2022-09-20T05:18:48.813Z,10.68
2022-09-20T05:21:44.447Z,10.77
2022-09-20T05:24:22.361Z,13.00
2022-09-20T05:27:11.041Z,12.15
2022-09-20T05:29:43.876Z,13.23
2022-09-20T05:32:43.584Z,11.57
2022-09-20T05:35:23.395Z,9.57
2022-09-20T05:38:05.891Z,11.93
2022-09-20T05:41:00.817Z,9.35
2022-09-20T05:43:39.691Z,8.23
2022-09-20T05:46:15.304Z,11.10
2022-09-20T05:49:07.418Z,8.38
2022-09-20T05:51:52.414Z,8.43
2022-09-20T05:54:53.543Z,8.48
2022-09-20T05:57:45.313Z,8.48
2022-09-20T06:00:17.012Z,6.78
2022-09-20T06:02:59.790Z,9.30
2022-09-20T06:05:49.761Z,7.18
2022-09-20T06:08:44.023Z,9.27
2022-09-20T06:11:50.382Z,9.18
2022-09-20T06:14:49.595Z,7.60
2022-09-20T06:17:27.040Z,9.13
2022-09-20T06:20:12.167Z,7.15
2022-09-20T06:22:49.833Z,8.18
2022-09-20T06:25:41.517Z,7.47
2022-09-20T06:28:17.767Z,6.95
2022-09-20T06:30:51.214Z,8.65
2022-09-20T06:33:24.887Z,9.85
2022-09-20T06:35:58.811Z,7.13
2022-09-20T06:41:23.499Z,5.47
2022-09-20T06:43:50.822Z,8.20
2022-09-20T06:46:19.645Z,7.03
2022-09-20T06:48:47.306Z,7.25
2022-09-20T06:51:14.036Z,4.82
2022-09-20T06:53:42.023Z,5.10
2022-09-20T06:56:14.081Z,8.90
2022-09-20T06:58:40.816Z,9.50
2022-09-20T07:01:08.575Z,10.25
2022-09-20T07:03:37.751Z,5.20
2022-09-20T07:06:05.028Z,4.35
2022-09-20T07:08:33.372Z,5.50
2022-09-20T07:11:09.068Z,14.70
2022-09-20T07:13:36.638Z,9.98
2022-09-20T07:16:06.906Z,9.13
2022-09-20T07:18:34.797Z,6.97
2022-09-20T07:21:02.054Z,5.07
2022-09-20T07:26:01.739Z,6.93
2022-09-20T07:28:29.952Z,4.90
2022-09-20T07:30:57.520Z,8.02
2022-09-20T07:33:25.627Z,5.22
2022-09-20T07:35:55.564Z,3.90
2022-09-20T07:38:23.474Z,3.78
2022-09-20T07:43:25.939Z,4.03
2022-09-20T07:45:58.402Z,4.90
2022-09-20T07:48:28.183Z,4.18
2022-09-20T07:50:59.574Z,3.75
2022-09-20T07:53:26.276Z,5.55
2022-09-20T07:56:24.489Z,4.38
2022-09-20T07:58:52.626Z,4.45
2022-09-20T08:01:21.324Z,6.32
2022-09-20T08:03:48.218Z,3.90
2022-09-20T08:06:18.718Z,4.55
2022-09-20T08:08:46.122Z,4.30
2022-09-20T08:11:16.190Z,7.40
2022-09-20T08:16:22.373Z,4.55
2022-09-20T08:18:56.500Z,2.78
2022-09-20T08:21:28.614Z,4.57
2022-09-20T08:23:55.372Z,4.03
2022-09-20T08:26:25.104Z,3.70
2022-09-20T08:28:54.309Z,5.03
2022-09-20T08:31:24.686Z,5.32
2022-09-20T08:33:53.224Z,3.80
2022-09-20T08:36:22.373Z,3.75
2022-09-20T08:41:59.677Z,4.60
2022-09-20T08:44:35.124Z,3.27
2022-09-20T08:47:20.275Z,3.10
2022-09-20T08:49:48.359Z,2.83
2022-09-20T08:52:23.609Z,3.17
2022-09-20T08:54:50.824Z,7.50
2022-09-20T08:57:20.816Z,4.40
2022-09-20T08:59:48.337Z,2.93
2022-09-20T09:02:21.301Z,4.30
2022-09-20T09:04:49.880Z,3.33
2022-09-20T09:07:23.840Z,3.63
2022-09-20T09:15:30.519Z,3.53
2022-09-20T09:17:57.228Z,2.88
2022-09-20T09:20:24.724Z,4.38
2022-09-20T09:23:07.641Z,6.20
2022-09-20T09:25:39.003Z,3.75
2022-09-20T09:28:08.957Z,3.05
2022-09-20T09:30:44.413Z,2.80
2022-09-20T09:36:09.177Z,3.67
2022-09-20T09:38:39.901Z,4.87
2022-09-20T09:44:20.171Z,3.33
2022-09-20T09:46:47.260Z,4.30
2022-09-20T09:49:29.791Z,5.68
2022-09-20T09:52:24.733Z,20.67
2022-09-20T09:55:03.183Z,8.10
2022-09-20T09:57:52.426Z,3.78
2022-09-20T10:00:23.424Z,3.93
2022-09-20T10:03:09.542Z,3.87
2022-09-20T10:06:06.312Z,2.60
2022-09-20T10:09:00.434Z,4.63
2022-09-20T10:11:51.589Z,3.60
2022-09-20T10:14:49.850Z,3.30
2022-09-20T10:17:52.479Z,4.20
2022-09-20T10:20:58.406Z,2.73
2022-09-20T10:26:53.836Z,3.30
2022-09-20T10:29:47.736Z,5.20
2022-09-20T10:34:58.502Z,4.60
2022-09-20T10:38:03.527Z,6.60
2022-09-20T10:41:10.971Z,2.17
2022-09-20T10:43:50.866Z,2.70
2022-09-20T10:46:52.234Z,2.87
2022-09-20T10:49:57.410Z,2.40
2022-09-20T10:52:54.590Z,2.70
2022-09-20T10:55:34.407Z,2.03
2022-09-20T10:58:28.988Z,1.90
2022-09-20T11:01:06.977Z,1.47
2022-09-20T11:04:14.170Z,1.70
2022-09-20T11:07:03.280Z,2.20
2022-09-20T11:09:38.416Z,1.97
2022-09-20T11:12:24.007Z,2.20
2022-09-20T11:15:04.960Z,3.13
2022-09-20T11:18:02.291Z,3.30
2022-09-20T11:20:47.866Z,1.80
2022-09-20T11:23:21.954Z,3.17
2022-09-20T11:26:04.871Z,2.70
2022-09-20T11:28:38.114Z,1.83
2022-09-20T11:31:15.055Z,2.00
2022-09-20T11:33:57.048Z,2.90
2022-09-20T11:36:45.520Z,4.60
2022-09-20T11:39:43.092Z,2.77
2022-09-20T11:42:20.220Z,1.50
2022-09-20T11:44:47.662Z,3.10
2022-09-20T11:47:49.990Z,3.30
2022-09-20T11:53:35.909Z,1.30
2022-09-20T11:56:21.588Z,1.90
2022-09-20T11:58:58.527Z,1.90
2022-09-20T12:04:32.512Z,4.65
2022-09-20T12:07:11.450Z,1.45
2022-09-20T12:09:44.224Z,2.75
2022-09-20T12:12:35.489Z,1.30
2022-09-20T12:15:06.105Z,5.05
2022-09-20T12:17:47.887Z,2.10
2022-09-20T12:20:32.860Z,4.18
2022-09-20T12:23:38.273Z,2.13
2022-09-20T12:26:07.981Z,2.90
2022-09-20T12:28:40.522Z,2.75
2022-09-20T12:31:20.310Z,2.47
2022-09-20T12:34:12.217Z,2.92
2022-09-20T12:36:55.389Z,2.63
2022-09-20T12:39:55.267Z,2.83
2022-09-20T12:42:32.189Z,3.10
2022-09-20T12:45:15.986Z,2.78
2022-09-20T12:47:53.468Z,4.40
2022-09-20T12:50:41.691Z,2.00
2022-09-20T12:53:19.546Z,9.25
2022-09-20T12:56:04.200Z,4.53
2022-09-20T12:58:52.532Z,2.20
2022-09-20T13:01:20.314Z,1.92
2022-09-20T13:03:50.469Z,1.70
2022-09-20T13:06:20.246Z,2.55
2022-09-20T13:09:08.973Z,1.77
2022-09-20T13:11:48.991Z,2.53
2022-09-20T13:14:23.039Z,3.33
2022-09-20T13:17:13.987Z,5.68
2022-09-20T13:19:49.383Z,1.70
2022-09-20T13:22:43.721Z,3.30
2022-09-20T13:25:18.575Z,3.10
2022-09-20T13:28:21.220Z,2.20
2022-09-20T13:30:48.837Z,2.45
2022-09-20T13:33:21.792Z,2.38
2022-09-20T13:35:54.804Z,2.90
2022-09-20T13:38:30.706Z,1.85
2022-09-20T13:41:13.398Z,1.80
2022-09-20T13:43:46.523Z,2.30
2022-09-20T13:46:28.869Z,1.88
2022-09-20T13:49:21.470Z,1.85
2022-09-20T13:51:52.603Z,1.95
2022-09-20T13:54:22.142Z,1.73
2022-09-20T13:56:50.749Z,1.65
2022-09-20T13:59:19.552Z,1.90
2022-09-20T14:01:54.556Z,3.90
2022-09-20T14:04:24.047Z,2.53
2022-09-20T14:06:53.700Z,1.92
2022-09-20T14:09:42.220Z,2.15
2022-09-20T14:12:14.191Z,1.77
2022-09-20T14:14:42.211Z,1.63
2022-09-20T14:17:12.308Z,2.00
2022-09-20T14:19:43.215Z,2.08
2022-09-20T14:22:19.987Z,2.45
2022-09-20T14:25:17.487Z,2.58
2022-09-20T14:27:45.651Z,1.98
2022-09-20T14:30:36.606Z,2.22
2022-09-20T14:41:10.811Z,3.28
2022-09-20T14:51:43.626Z,5.25
2022-09-20T15:13:06.682Z,3.15
2022-09-20T15:21:07.312Z,3.38
2022-09-20T15:23:35.709Z,2.03
2022-09-20T15:26:03.300Z,2.08
2022-09-20T15:28:36.541Z,1.60
2022-09-20T15:31:06.031Z,2.78
2022-09-20T15:33:36.554Z,1.90
2022-09-20T15:36:12.923Z,1.77
2022-09-20T15:38:43.653Z,1.60
2022-09-20T15:41:10.371Z,1.10
2022-09-20T15:43:38.130Z,1.40
2022-09-20T15:46:21.181Z,1.80
2022-09-20T15:48:48.208Z,4.22
2022-09-20T15:51:15.567Z,1.55
2022-09-20T15:53:57.352Z,4.03
2022-09-20T15:56:32.689Z,1.98
2022-09-20T15:59:05.209Z,3.25
2022-09-20T16:01:40.091Z,2.65
2022-09-20T16:04:10.825Z,1.33
2022-09-20T16:06:39.101Z,1.40
2022-09-20T16:09:08.552Z,1.60
2022-09-20T16:11:37.186Z,2.03
2022-09-20T16:14:04.864Z,2.58
2022-09-20T16:16:39.159Z,3.28
2022-09-20T16:19:22.768Z,2.00
2022-09-20T16:21:59.295Z,3.20
2022-09-20T16:24:35.041Z,4.97
2022-09-20T16:27:04.470Z,2.28
2022-09-20T16:29:34.295Z,3.83
2022-09-20T16:32:04.683Z,4.10
2022-09-20T16:34:36.483Z,2.22
2022-09-20T16:37:15.260Z,3.28
2022-09-20T16:39:43.387Z,2.22
2022-09-20T16:42:13.159Z,2.60
2022-09-20T16:44:44.832Z,3.65
2022-09-20T16:47:22.436Z,6.82
2022-09-20T16:57:56.803Z,2.85
2022-09-20T17:13:43.591Z,4.63
2022-09-20T17:18:46.974Z,3.53
2022-09-20T17:21:22.700Z,5.10
2022-09-20T17:26:37.928Z,3.22
2022-09-20T17:29:12.306Z,4.07
2022-09-20T17:31:44.220Z,5.13
2022-09-20T17:34:24.077Z,2.88
2022-09-20T17:36:51.063Z,3.95
2022-09-20T17:39:18.763Z,4.00
2022-09-20T17:41:48.322Z,5.70
2022-09-20T17:44:16.665Z,2.95
2022-09-20T17:49:23.189Z,3.97
2022-09-20T17:51:55.431Z,3.88
2022-09-20T17:54:27.217Z,2.78
2022-09-20T17:56:57.957Z,3.80
2022-09-20T17:59:28.938Z,2.80
2022-09-20T18:01:58.360Z,4.28
2022-09-20T18:04:30.922Z,3.92
2022-09-20T18:06:59.368Z,5.00
2022-09-20T18:09:28.597Z,2.70
2022-09-20T18:11:57.615Z,3.85
2022-09-20T18:14:31.883Z,7.50
2022-09-20T18:17:01.735Z,5.90
2022-09-20T18:19:33.284Z,3.00
2022-09-20T18:22:01.913Z,2.88
2022-09-20T18:24:30.608Z,3.35
2022-09-20T18:26:57.889Z,4.35
2022-09-20T18:29:26.504Z,10.77
2022-09-20T18:32:02.338Z,6.78
2022-09-20T18:34:36.137Z,5.45
2022-09-20T18:37:05.623Z,3.95
2022-09-20T18:39:38.083Z,5.90
2022-09-20T18:42:06.512Z,3.97
2022-09-20T18:44:42.840Z,7.28
2022-09-20T18:49:52.735Z,3.55
2022-09-20T18:52:43.147Z,4.05
2022-09-20T18:55:10.859Z,3.85
2022-09-20T19:13:55.660Z,3.88
2022-09-20T19:16:35.025Z,8.65
2022-09-20T19:19:39.819Z,5.57
2022-09-20T19:22:32.116Z,6.45
2022-09-20T19:25:16.511Z,6.20
2022-09-20T19:27:43.777Z,8.23
2022-09-20T19:30:17.439Z,9.82
2022-09-20T19:32:45.318Z,10.73
2022-09-20T19:35:28.895Z,9.82
2022-09-20T19:38:50.085Z,11.88
2022-09-20T19:41:55.195Z,11.15
2022-09-20T19:44:34.950Z,13.02
2022-09-20T19:47:50.295Z,10.07
2022-09-20T19:58:37.113Z,9.48
2022-09-20T20:01:04.344Z,8.70
2022-09-20T20:03:31.528Z,7.85
2022-09-20T20:06:17.456Z,10.45
2022-09-20T20:08:54.850Z,7.97
2022-09-20T20:27:54.614Z,6.68
2022-09-20T20:41:06.404Z,6.95
2022-09-20T20:43:36.764Z,7.20
2022-09-20T20:46:05.391Z,7.90
2022-09-20T20:48:34.277Z,8.30
2022-09-20T20:53:39.432Z,6.57
2022-09-20T21:11:56.053Z,13.15
2022-09-20T21:14:22.979Z,9.15
2022-09-20T21:22:18.855Z,9.52
2022-09-20T21:24:48.365Z,9.48
2022-09-20T21:35:13.684Z,10.27
2022-09-20T21:37:44.373Z,10.85
2022-09-20T21:40:12.321Z,8.55
2022-09-20T21:42:41.123Z,9.00
2022-09-20T21:55:59.166Z,9.85
2022-09-20T22:17:21.442Z,11.57
2022-09-20T23:29:52.760Z,10.40
2022-09-20T23:35:01.216Z,10.00
2022-09-20T23:37:31.100Z,8.93
2022-09-20T23:39:57.933Z,7.93
2022-09-20T23:42:25.180Z,7.95
2022-09-20T23:52:52.508Z,10.13
